Last 24 Hours

Thomas Mountain

10 Minute Data | America/Los_Angeles
as of 5/7/26 3:22 AM PDT
Date & Time Temp (°F) Dew Pt (°F) RH (%) Wind Spd (mph) Wind Dir (°) Wind Gust (mph) Wind Gst Dir (°) Daily Max Temp (°F) Daily Min Temp (°F)
5/7/26 - 0320 59.1 32.4 36 9.0 NNE | 26 11.2 NNE | 13 59.3 54.8
5/7/26 - 0310 57.6 33.2 40 8.5 NNE | 29 10.9 NNE | 26 59.0 54.8
5/7/26 - 0300 57.9 33.5 40 8.8 NNE | 23 11.0 NNE | 17 59.0 54.8
5/7/26 - 0250 57.1 34.5 42 8.3 NNE | 21 11.7 NNE | 17 58.8 54.8
5/7/26 - 0240 58.4 33.8 39 8.0 NNE | 24 10.3 NNE | 21 58.8 54.8
5/7/26 - 0230 57.5 34.5 42 7.6 NNE | 29 10.1 NNE | 21 58.7 54.8
5/7/26 - 0220 55.8 35.9 47 7.4 NNE | 23 9.6 NNE | 27 58.7 54.8
5/7/26 - 0210 55.8 35.6 47 7.6 NNE | 29 10.1 NNE | 14 58.7 54.8
5/7/26 - 0200 56.2 35.4 45 6.7 NE | 41 8.8 NE | 36 58.7 54.8
5/7/26 - 0150 55.5 35.7 47 6.9 NNE | 19 9.0 N | 8 58.7 54.8
5/7/26 - 0140 56.8 34.6 43 5.4 NNE | 12 8.8 NNE | 33 58.7 54.8
5/7/26 - 0130 55.2 37.8 52 3.1 NE | 37 5.3 NE | 46 56.2 54.8
5/7/26 - 0120 55.0 39.0 55 3.8 NNE | 26 7.0 NNE | 32 56.2 54.9
5/7/26 - 0110 55.7 38.7 53 3.2 NNE | 23 7.2 NNE | 32 56.2 55.3
5/7/26 - 0100 56.6 38.2 50 1.7 N | 3 4.0 N | 350 66.1 37.6
5/7/26 - 0050 56.6 37.8 49 0.8 N | 7 4.2 N | 352 66.1 37.6
5/7/26 - 0040 56.0 38.8 52 2.3 S | 177 4.4 S | 170 66.1 37.6
5/7/26 - 0030 56.1 38.0 50 1.5 S | 189 3.4 S | 188 66.1 37.6
5/7/26 - 0020 55.7 38.4 52 3.8 NW | 318 8.6 N | 353 66.1 37.6
5/7/26 - 0010 55.5 39.6 55 6.8 N | 360 9.1 N | 4 66.1 37.6
5/7/26 - 0000 55.2 40.9 58 7.3 N | 11 10.4 N | 9 66.1 37.6
5/6/26 - 2350 54.9 41.9 61 8.4 N | 11 10.7 N | 2 66.1 37.6
5/6/26 - 2340 54.6 42.7 64 7.5 NNE | 17 10.7 NNE | 23 66.1 37.6
5/6/26 - 2330 54.2 43.7 67 8.0 NNE | 16 10.4 NNE | 23 66.1 37.6
5/6/26 - 2320 53.8 44.5 70 8.5 NNE | 13 10.7 NNE | 18 66.1 37.6
5/6/26 - 2310 53.9 44.5 70 8.2 NNE | 17 10.8 N | 11 66.1 37.6
5/6/26 - 2300 54.2 44.0 68 7.8 NNE | 16 11.2 N | 6 66.1 37.6
5/6/26 - 2250 54.0 44.4 70 7.6 NNE | 18 9.6 NNE | 20 66.1 37.6
5/6/26 - 2240 53.8 44.8 71 7.3 NNE | 17 9.6 NNE | 13 66.1 37.6
5/6/26 - 2230 53.7 45.2 73 7.3 NNE | 12 9.7 NNE | 16 66.1 37.6
5/6/26 - 2220 53.7 44.6 71 6.2 NNE | 26 9.5 N | 7 66.1 37.6
5/6/26 - 2210 53.5 44.0 70 5.2 NNE | 24 7.0 NNE | 29 66.1 37.6
5/6/26 - 2200 53.3 45.1 74 3.1 NE | 34 5.6 NNE | 25 66.1 37.6
5/6/26 - 2150 53.1 44.8 73 2.6 N | 6 6.1 NE | 49 66.1 37.6
5/6/26 - 2140 53.4 45.2 74 6.2 NNE | 16 9.6 N | 350 66.1 37.6
5/6/26 - 2130 53.4 45.1 73 7.4 NNE | 22 9.6 NNE | 17 66.1 37.6
5/6/26 - 2120 53.5 44.7 72 7.2 NNE | 16 10.3 NNE | 16 66.1 37.6
5/6/26 - 2110 53.8 44.5 71 7.6 NNE | 18 10.7 N | 3 66.1 37.6
5/6/26 - 2100 54.2 44.4 69 8.1 N | 10 11.0 N | 0 66.1 37.6
5/6/26 - 2050 54.8 44.0 67 7.6 NNE | 15 10.1 N | 6 66.1 37.6
5/6/26 - 2040 55.3 43.9 65 8.0 NNE | 18 11.6 NNE | 14 66.1 37.6
5/6/26 - 2030 55.3 43.2 64 6.6 NNE | 15 9.6 N | 8 66.1 37.6
5/6/26 - 2020 55.8 42.8 61 6.3 NNE | 16 8.9 NNE | 30 66.1 37.6
5/6/26 - 2010 56.4 42.6 60 7.7 NNE | 25 11.2 NNE | 22 66.1 37.6
5/6/26 - 2000 56.7 42.6 59 8.4 NNE | 23 12.6 NNE | 22 66.1 37.6
5/6/26 - 1950 57.2 42.3 57 9.7 NNE | 17 13.3 N | 11 66.1 37.6
5/6/26 - 1940 57.4 42.3 57 10.2 NNE | 14 14.3 N | 4 66.1 37.6
5/6/26 - 1930 57.4 42.8 58 10.8 NNE | 15 17.3 NNE | 15 66.1 37.6
5/6/26 - 1920 57.3 43.2 59 9.7 NNE | 15 13.3 NNE | 18 66.1 37.6
5/6/26 - 1910 57.8 43.2 58 10.7 NNE | 17 15.6 NNE | 22 66.1 37.6
5/6/26 - 1900 58.4 43.0 56 9.5 NNE | 22 13.2 NNE | 25 66.1 37.6
5/6/26 - 1850 59.1 42.8 55 8.7 NNE | 19 12.9 N | 5 66.1 37.6
5/6/26 - 1840 60.0 42.4 52 8.4 NNE | 21 12.6 N | 6 66.1 37.6
5/6/26 - 1830 60.7 42.1 50 8.5 NNE | 22 12.1 NNE | 26 66.1 37.6
5/6/26 - 1820 61.3 41.8 49 9.6 NNE | 22 13.7 NNE | 13 66.1 37.6
5/6/26 - 1810 61.8 41.3 47 8.1 NNE | 17 11.9 NNE | 20 66.1 37.6
5/6/26 - 1800 62.6 40.5 44 8.9 NNE | 28 14.0 NNE | 23 66.1 37.6
5/6/26 - 1750 63.2 40.2 43 7.4 NNE | 22 12.4 NNE | 21 66.1 37.6
5/6/26 - 1740 63.7 39.8 41 8.1 NNE | 31 11.6 NNE | 30 66.1 37.6
5/6/26 - 1730 63.7 39.7 41 10.5 NE | 36 15.9 NE | 48 66.1 37.6
5/6/26 - 1720 64.3 39.5 40 9.2 NNE | 33 15.4 NE | 49 66.1 37.6
5/6/26 - 1710 65.2 39.8 39 7.6 ENE | 57 16.1 ENE | 57 66.1 37.6
5/6/26 - 1700 64.3 39.8 40 9.0 SSE | 152 17.8 ENE | 74 66.1 37.6
5/6/26 - 1650 65.0 39.9 40 9.5 SSW | 207 17.1 SSW | 206 66.1 37.6
5/6/26 - 1640 64.5 40.2 41 4.9 SSW | 192 14.0 S | 191 66.1 37.6
5/6/26 - 1630 64.4 39.0 39 7.9 ESE | 117 15.8 SE | 127 66.0 37.6
5/6/26 - 1620 65.0 35.2 33 5.0 E | 90 11.9 ENE | 78 66.0 37.6
5/6/26 - 1610 65.3 35.6 33 5.5 ESE | 115 12.4 ESE | 108 66.0 37.6
5/6/26 - 1600 64.8 35.2 33 9.9 E | 95 16.9 E | 84 66.0 37.6
5/6/26 - 1550 64.2 35.6 35 3.9 ENE | 74 11.3 ENE | 72 66.0 37.6
5/6/26 - 1540 63.9 35.6 35 4.5 ESE | 102 11.6 ESE | 121 66.0 37.6
5/6/26 - 1530 64.6 35.8 34 7.6 E | 81 16.4 ENE | 77 66.0 37.6
5/6/26 - 1520 64.2 35.4 34 8.6 ENE | 75 20.0 E | 88 66.0 37.6
5/6/26 - 1510 65.0 35.9 34 6.4 NE | 46 13.0 ENE | 77 66.0 37.6
5/6/26 - 1500 64.4 36.0 35 6.4 ENE | 61 13.4 ESE | 107 65.6 37.6
5/6/26 - 1450 64.4 35.2 34 6.3 NE | 44 11.6 NNW | 346 65.6 37.6
5/6/26 - 1440 64.0 34.8 34 6.1 NE | 51 14.2 NE | 44 65.6 37.6
5/6/26 - 1430 64.1 34.9 34 7.1 ENE | 77 16.4 E | 82 65.6 37.6
5/6/26 - 1420 64.4 35.2 34 5.2 ENE | 61 12.7 E | 87 65.6 37.6
5/6/26 - 1410 63.2 34.6 34 5.6 ENE | 75 11.2 ENE | 75 65.0 37.6
5/6/26 - 1400 63.9 35.0 34 7.2 E | 82 16.7 E | 79 65.0 37.6
5/6/26 - 1350 63.8 34.8 34 5.6 NE | 52 15.1 ENE | 63 65.0 37.6
5/6/26 - 1340 63.9 36.8 37 5.1 SE | 132 14.6 E | 85 65.0 37.6
5/6/26 - 1330 63.6 35.0 34 4.8 E | 88 11.1 NE | 52 65.0 37.6
5/6/26 - 1320 63.9 35.4 34 4.8 ENE | 60 14.1 ENE | 70 65.0 37.6
5/6/26 - 1310 63.1 35.0 35 6.8 NE | 48 21.3 ENE | 61 65.0 37.6
5/6/26 - 1300 63.4 34.9 34 5.6 NE | 56 15.1 NE | 51 65.0 37.6
5/6/26 - 1250 63.4 34.7 34 4.2 NE | 45 10.4 E | 88 65.0 37.6
5/6/26 - 1240 63.5 35.2 35 4.2 NE | 54 10.6 NE | 34 65.0 37.6
5/6/26 - 1230 62.1 34.8 36 7.6 ENE | 73 15.2 ENE | 65 62.8 37.6
5/6/26 - 1220 60.9 38.1 43 3.6 ESE | 109 12.1 E | 95 62.0 37.6
5/6/26 - 1210 59.1 40.3 50 2.2 S | 186 6.5 SSW | 210 59.8 37.6
5/6/26 - 1200 58.6 40.6 51 4.7 WSW | 238 13.7 W | 260 59.4 37.6
5/6/26 - 1150 58.1 40.6 52 5.4 WSW | 243 9.9 WSW | 245 58.9 37.6
5/6/26 - 1140 58.1 40.7 52 7.1 WSW | 243 12.4 SW | 224 58.9 37.6
5/6/26 - 1130 57.5 40.7 53 7.8 WSW | 255 13.7 WSW | 246 58.4 37.6
5/6/26 - 1120 57.4 40.4 53 7.7 WSW | 247 15.2 WSW | 249 58.4 37.6
5/6/26 - 1110 56.8 40.0 53 7.3 WSW | 245 14.8 WSW | 248 57.7 37.6
5/6/26 - 1100 56.4 39.8 53 8.1 SW | 236 15.1 SW | 220 57.5 37.6
5/6/26 - 1050 56.3 38.9 52 7.7 WSW | 240 14.5 SSW | 196 57.5 37.6
5/6/26 - 1040 55.7 39.2 54 8.5 WSW | 247 14.3 WSW | 246 56.6 37.6
5/6/26 - 1030 54.8 40.1 58 7.8 WSW | 247 13.4 WSW | 253 55.7 37.6
5/6/26 - 1020 54.2 40.4 60 7.0 WSW | 247 12.9 WSW | 258 54.5 37.6
5/6/26 - 1010 53.6 41.5 63 7.4 WSW | 247 12.2 WSW | 256 54.3 37.6
5/6/26 - 1000 53.0 41.4 64 7.4 WSW | 246 11.6 WSW | 248 53.5 37.6
5/6/26 - 0950 52.2 41.4 66 7.6 WSW | 247 11.7 WSW | 252 52.5 37.6
5/6/26 - 0940 51.7 41.4 68 7.1 WSW | 243 10.2 SW | 233 52.4 37.6
5/6/26 - 0930 51.8 42.2 70 5.8 WSW | 246 9.9 WSW | 248 52.4 37.6
5/6/26 - 0920 51.5 42.2 70 4.9 SW | 228 7.7 WSW | 252 52.4 37.6
5/6/26 - 0910 50.8 40.8 68 4.3 WSW | 239 6.6 SW | 225 52.4 37.6
5/6/26 - 0900 50.2 39.5 67 4.4 WSW | 243 7.0 WSW | 253 52.4 37.6
5/6/26 - 0850 51.0 39.6 65 3.5 SW | 235 5.4 WSW | 244 52.4 37.6
5/6/26 - 0840 51.9 37.4 58 2.8 NE | 43 7.3 NE | 45 52.4 37.6
5/6/26 - 0830 50.6 36.1 57 6.2 NE | 43 8.4 NE | 41 51.1 37.6
5/6/26 - 0820 50.1 35.4 57 6.9 NE | 39 10.0 NE | 41 50.3 37.6
5/6/26 - 0810 49.7 36.1 59 7.1 NE | 34 11.1 NE | 45 49.9 37.6
5/6/26 - 0800 49.0 36.8 63 6.5 NE | 42 10.4 NE | 44 49.5 37.6
5/6/26 - 0750 48.2 37.5 66 5.5 NE | 50 8.6 NE | 34 48.5 37.6
5/6/26 - 0740 47.0 37.2 69 6.3 NE | 50 8.8 NE | 54 47.6 37.6
5/6/26 - 0730 46.2 36.8 69 7.8 NE | 43 11.0 NE | 36 46.5 37.6
5/6/26 - 0720 45.9 36.5 70 7.4 NE | 44 9.4 NE | 47 46.0 37.6
5/6/26 - 0710 45.2 36.2 70 6.5 NE | 34 9.2 NNE | 20 45.9 37.6
5/6/26 - 0700 44.2 35.9 72 6.7 NE | 36 9.4 NNE | 22 44.6 37.6
5/6/26 - 0650 43.4 35.7 74 6.2 NE | 35 8.4 NNE | 24 44.0 37.6
5/6/26 - 0640 43.6 35.2 72 6.5 NE | 39 8.1 NE | 34 44.0 37.6
5/6/26 - 0630 42.0 35.3 77 5.1 NNE | 22 7.3 NNE | 17 43.2 37.6
5/6/26 - 0620 41.6 35.2 78 6.6 NNE | 24 9.3 NNE | 15 42.0 37.6
5/6/26 - 0610 41.1 34.9 78 6.2 NNE | 30 8.7 NNE | 20 41.8 37.6
5/6/26 - 0600 41.2 34.9 78 6.7 NNE | 31 9.3 NE | 34 41.5 37.6
5/6/26 - 0550 38.6 35.9 90 6.8 NNE | 20 10.2 N | 0 40.6 37.6
5/6/26 - 0540 38.3 36.1 92 5.9 NNE | 25 8.7 NNE | 30 38.8 37.6
5/6/26 - 0530 38.4 36.3 92 6.9 NNE | 27 10.4 NNE | 27 38.8 37.6
5/6/26 - 0520 38.3 36.2 92 7.3 NNE | 20 10.8 N | 11 38.8 37.6
5/6/26 - 0510 38.4 36.2 92 7.4 NNE | 18 10.3 NNE | 16 38.8 37.6
5/6/26 - 0500 38.2 36.3 93 7.5 NNE | 15 11.0 NNE | 17 38.8 37.6
5/6/26 - 0450 38.2 36.4 93 8.1 NNE | 18 12.4 N | 11 38.8 37.6
5/6/26 - 0440 38.4 36.3 92 8.1 NNE | 24 10.8 N | 8 38.8 37.6
5/6/26 - 0430 38.5 36.2 92 6.7 NNE | 17 10.4 NNE | 13 38.8 37.6
5/6/26 - 0420 38.4 36.2 92 4.4 NNE | 20 9.1 NNE | 30 38.8 37.6
5/6/26 - 0410 38.5 36.2 91 3.2 N | 357 6.6 N | 0 38.8 37.6
5/6/26 - 0400 38.3 36.6 94 5.6 N | 10 9.1 N | 10 38.8 37.6
5/6/26 - 0350 38.1 36.7 95 6.4 NNE | 18 9.8 NNE | 32 38.8 37.6
5/6/26 - 0340 37.8 36.7 96 4.4 NNE | 31 6.4 NNE | 22 38.8 37.6
5/6/26 - 0330 38.1 36.9 95 6.1 NE | 36 10.3 NE | 43 38.8 37.9
5/6/26 - 0320 38.2 36.9 95 8.5 NE | 38 12.6 NNE | 25 38.8 38.0
Max 65.3 45.2 96 10.8 - 21.3 - 66.1 55.3
Avg 54.6 38.8 58 6.7 - 11.1 - - -
Min 37.8 32.4 33 0.8 - 3.4 - 38.8 37.6